Flight Track Log - Related Links

Times and Time Zones

All times are in EDT time to prevent confusion due to time zone crossing. See the EJM918 flight status page for this flight to view local times or setup timezone preferences in your user account.

Time Position Orientation Groundspeed Altitude Reporting Facility
EDT Latitude Longitude Course Direction KTS MPH feet Rate Location/Type
Sun 06:05:51 PM 25.8003 -80.2744 88° East 168 193 900  Level Miami Center
Sun 06:06:04 PM 25.8006 -80.2631 88° East 176 203 1,500 2,419 Climbing Miami Center
Sun 06:06:53 PM 25.8100 -80.2172 77° East 222 255 3,400 2,557 Climbing Miami Center
Sun 06:07:05 PM 25.8083 -80.1939 95° East 259 298 4,100 3,200 Climbing Miami Center
Sun 06:07:53 PM 25.8158 -80.1367 82° East 279 321 6,600 3,556 Climbing Miami Center
Sun 06:08:53 PM 25.8303 -80.0514 79° East 286 329 10,500 2,600 Climbing Miami Center
Sun 06:09:53 PM 25.8867 -79.9631 55° Northeast 306 352 11,800 2,150 Climbing Miami Center
Sun 06:10:53 PM 25.9514 -79.8606 55° Northeast 356 410 14,800 2,850 Climbing Miami Center
Sun 06:11:53 PM 26.0161 -79.7583 55° Northeast 385 443 17,500 2,600 Climbing Miami Center
Sun 06:12:53 PM 26.0872 -79.6489 54° Northeast 405 466 20,000 2,450 Climbing Miami Center
Sun 06:13:53 PM 26.1908 -79.5794 31° Northeast 413 475 22,400 2,350 Climbing Miami Center
Sun 06:14:53 PM 26.3153 -79.5128 26° Northeast 431 496 24,700 2,250 Climbing Miami Center
Sun 06:15:53 PM 26.4375 -79.4531 24° Northeast 459 528 26,900 2,000 Climbing Miami Center
Sun 06:16:53 PM 26.5597 -79.3906 25° Northeast 471 542 28,700 2,350 Climbing Miami Center
Sun 06:17:53 PM 26.6819 -79.3258 25° Northeast 479 551 31,600 2,150 Climbing Miami Center
Sun 06:18:53 PM 26.8042 -79.2656 24° Northeast 479 551 33,000 700 Climbing Miami Center
Sun 06:19:53 PM 26.9117 -79.2094 25° Northeast 479 551 33,000 50 Level Miami Center
Sun 06:20:53 PM 27.0275 -79.1467 26° Northeast 463 533 33,100 550 Climbing Miami Center
Sun 06:21:53 PM 27.1475 -79.0883 23° Northeast 453 521 34,100 1,650 Climbing Miami Center
Sun 06:22:53 PM 27.2675 -79.0250 25° Northeast 463 533 36,400 2,300 Climbing Miami Center
Sun 06:23:53 PM 27.3936 -78.9597 25° Northeast 463 533 38,700 1,900 Climbing Miami Center
Sun 06:24:53 PM 27.5194 -78.9339 10° North 452 520 40,200 1,600 Climbing Miami Center
Sun 06:25:53 PM 27.6428 -78.9172 North 446 513 41,900 1,350 Climbing Miami Center
Sun 06:26:53 PM 27.7536 -78.9006 North 446 513 42,900 1,000 Climbing Miami Center
Sun 06:27:53 PM 27.8875 -78.8817 North 437 503 43,900 1,050 Climbing Miami Center
Sun 06:28:53 PM 28.0131 -78.8653 North 437 503 45,000 550 Climbing Miami Center
Sun 06:29:53 PM 28.1408 -78.8461 North 442 509 45,000  Level Miami Center
Sun 06:30:53 PM 28.2661 -78.8272 North 447 514 45,000  Level Miami Center
Sun 06:32:05 PM 28.3917 -78.8106 North 453 521 45,000  Level Miami Center
Sun 06:33:05 PM 28.5464 -78.7897 North 453 521 45,000  Level Miami Center
Sun 06:34:05 PM 28.6719 -78.7728 North 453 521 45,000  Level Miami Center
Sun 06:35:05 PM 28.7953 -78.7536 North 459 528 45,000  Level Miami Center
Sun 06:36:05 PM 28.9228 -78.7369 North 454 522 45,000  Level Miami Center
Sun 06:37:05 PM 29.0461 -78.7175 North 454 522 45,000  Level Miami Center
Sun 06:38:05 PM 29.1717 -78.7006 North 454 522 45,000  Level Miami Center
Sun 06:39:05 PM 29.2950 -78.6814 North 449 517 45,000  Level Miami Center
Sun 06:40:05 PM 29.4203 -78.6644 North 449 517 45,000  Level Miami Center
Sun 06:41:05 PM 29.5436 -78.6450 North 444 511 45,000  Level Miami Center
Sun 06:43:34 PM 29.8417 -78.6044 North 442 509 45,000  Level Jacksonville Center
Sun 06:44:34 PM 29.9661 -78.5844 North 442 509 45,000  Level Jacksonville Center
Sun 06:45:34 PM 30.0886 -78.5647 North 442 509 45,000  Level Jacksonville Center
Sun 06:46:34 PM 30.2156 -78.5494 North 442 509 45,000  Level Jacksonville Center
Sun 06:47:34 PM 30.3422 -78.5317 North 442 509 45,000  Level Jacksonville Center
Sun 06:48:34 PM 30.4628 -78.5139 North 444 511 45,000  Level Jacksonville Center
Sun 06:49:34 PM 30.5892 -78.4936 North 444 511 45,000  Level Jacksonville Center
Sun 06:50:34 PM 30.7139 -78.4733 North 444 511 45,000  Level Jacksonville Center
Sun 06:51:34 PM 30.8342 -78.4533 North 444 511 45,000  Level Jacksonville Center
Sun 06:52:34 PM 30.9608 -78.4306 North 445 512 45,000  Level Jacksonville Center
Sun 06:53:34 PM 31.0894 -78.4122 North 450 518 45,000  Level Jacksonville Center
Sun 06:54:34 PM 31.2100 -78.3992 North 443 510 45,000  Level Jacksonville Center
Sun 06:55:34 PM 31.3406 -78.3711 10° North 448 516 45,000  Level Jacksonville Center
Sun 06:56:34 PM 31.4631 -78.3531 North 448 516 45,000  Level Jacksonville Center
Sun 06:57:34 PM 31.5897 -78.3322 North 448 516 45,000  Level Jacksonville Center
Sun 06:58:34 PM 31.7183 -78.3086 North 454 522 45,000  Level Jacksonville Center
Sun 06:59:34 PM 31.8450 -78.2878 North 464 534 45,000  Level Jacksonville Center
Sun 07:00:34 PM 31.9756 -78.2642 North 464 534 45,000  Level Jacksonville Center
Sun 07:01:34 PM 32.1144 -78.2400 North 464 534 45,000  Level Jacksonville Center
Sun 07:02:34 PM 32.2411 -78.2211 North 464 534 45,000  Level Jacksonville Center
Sun 07:03:34 PM 32.3678 -78.2000 North 464 534 45,000  Level Jacksonville Center
Sun 07:04:34 PM 32.4961 -78.1761 North 464 534 45,000  Level Jacksonville Center
Sun 07:05:34 PM 32.6250 -78.1619 North 464 534 45,000  Level Jacksonville Center
Sun 07:06:34 PM 32.7556 -78.1378 North 464 534 45,000  Level Jacksonville Center
Sun 07:07:34 PM 32.8842 -78.1186 North 464 534 45,000  Level Jacksonville Center
Sun 07:08:34 PM 33.0128 -78.0969 North 464 534 45,000  Level Jacksonville Center
Sun 07:10:17 PM 33.2181 -78.0611 North 462 532 45,000  Level Washington Center
Sun 07:11:18 PM 33.3458 -78.0400 North 467 537 45,000  Level Washington Center
Sun 07:12:19 PM 33.4756 -78.0214 North 467 537 45,000  Level Washington Center
Sun 07:13:19 PM 33.6031 -78.0003 North 467 537 45,000  Level Washington Center
Sun 07:14:17 PM 33.7286 -77.9789 North 467 537 45,000  Level Washington Center
Sun 07:15:18 PM 33.8689 -77.9553 North 461 531 45,000  Level Washington Center
Sun 07:16:18 PM 34.0069 -77.9392 North 475 547 45,000  Level Washington Center
Sun 07:17:19 PM 34.1364 -77.9328 North 475 547 45,000  Level Washington Center
Sun 07:18:19 PM 34.2658 -77.9264 North 464 534 45,000  Level Washington Center
Sun 07:19:20 PM 34.3994 -77.9278 360° North 470 541 45,000  Level Washington Center
Sun 07:20:17 PM 34.5289 -77.9239 North 470 541 45,000  Level Washington Center
Sun 07:21:18 PM 34.6583 -77.9200 North 464 534 45,000  Level Washington Center
Sun 07:22:18 PM 34.7878 -77.9161 North 458 527 45,000  Level Washington Center
Sun 07:23:19 PM 34.9108 -77.9094 North 458 527 45,000  Level Washington Center
Sun 07:24:19 PM 35.0425 -77.9056 North 458 527 45,000  Level Washington Center
Sun 07:25:19 PM 35.1719 -77.9017 North 458 527 45,000  Level Washington Center
Sun 07:26:18 PM 35.2994 -77.8953 North 458 527 45,000  Level Washington Center
Sun 07:27:19 PM 35.4308 -77.8914 North 463 533 45,000  Level Washington Center
Sun 07:28:19 PM 35.5622 -77.8900 360° North 463 533 45,000  Level Washington Center
Sun 07:29:17 PM 35.6939 -77.8861 North 463 533 45,000  Level Washington Center
Sun 07:30:18 PM 35.8233 -77.8822 North 463 533 45,000  Level Washington Center
Sun 07:31:17 PM 35.9528 -77.8783 North 463 533 45,000  Level Washington Center
Sun 07:32:17 PM 36.0739 -77.8767 North 468 539 45,000  Level Washington Center
Sun 07:33:17 PM 36.2053 -77.8728 North 468 539 45,000  Level Washington Center
Sun 07:34:19 PM 36.3347 -77.8686 North 463 533 45,000  Level Washington Center
Sun 07:35:18 PM 36.4747 -77.8625 North 458 527 45,000  Level Washington Center
Sun 07:36:19 PM 36.5978 -77.8608 North 471 542 45,000  Level Washington Center
Sun 07:37:19 PM 36.7272 -77.8569 North 476 548 45,000  Level Washington Center
Sun 07:38:19 PM 36.8589 -77.8453 North 476 548 45,000  Level Washington Center
Sun 07:39:18 PM 36.9850 -77.7864 20° North 476 548 45,000  Level Washington Center
Sun 07:40:20 PM 37.1075 -77.7169 24° Northeast 476 548 45,000  Level Washington Center
Sun 07:41:17 PM 37.2297 -77.6447 25° Northeast 476 548 45,000  Level Washington Center
Sun 07:42:17 PM 37.3519 -77.5722 25° Northeast 476 548 45,000  Level Washington Center
Sun 07:43:18 PM 37.4739 -77.4994 25° Northeast 481 554 45,000  Level Washington Center
Sun 07:44:20 PM 37.6086 -77.4189 25° Northeast 481 554 45,000  Level Washington Center
Sun 07:45:17 PM 37.7308 -77.3458 25° Northeast 481 554 45,000 -864 Level Washington Center
Sun 07:46:18 PM 37.8528 -77.2697 26° Northeast 481 554 43,300 -1,686 Descending Washington Center
Sun 07:47:18 PM 37.9769 -77.1961 25° Northeast 486 559 41,600 -1,700 Descending Washington Center
Sun 07:48:18 PM 38.0989 -77.1222 25° Northeast 486 559 39,900 -1,736 Descending Washington Center
Sun 07:49:19 PM 38.2228 -77.0400 28° Northeast 486 559 38,100 -1,765 Descending Washington Center
Sun 07:50:17 PM 38.3489 -76.9683 24° Northeast 486 559 36,400 -1,800 Descending Washington Center
Sun 07:51:19 PM 38.4644 -76.8936 27° Northeast 494 568 34,500 -1,672 Descending Washington Center
Sun 07:52:19 PM 38.5944 -76.8161 25° Northeast 500 575 33,000 -1,678 Descending Washington Center
Sun 07:53:17 PM 38.7183 -76.7250 30° Northeast 507 583 31,200 -1,866 Descending Washington Center
Sun 07:54:18 PM 38.8300 -76.6017 41° Northeast 520 598 29,300 -1,588 Descending Washington Center
Sun 08:00:24 PM 39.4957 -75.8780 41° Northeast 465 535 19,900 -1,636 Descending FlightAware ADS-B (KSYR)
Sun 08:00:54 PM 39.5474 -75.8288 36° Northeast 458 527 18,500 -2,478 Descending FlightAware ADS-B (KSYR)
Sun 08:01:56 PM 39.6500 -75.7333 36° Northeast 444 511 16,100 -2,361 Descending Philadelphia TRACON
Sun 08:02:56 PM 39.7500 -75.6500 33° Northeast 423 487 13,700 -1,500 Descending Philadelphia TRACON
Sun 08:03:56 PM 39.8333 -75.5667 38° Northeast 408 470 13,100 -316 Descending Philadelphia TRACON
Sun 08:04:50 PM 39.9333 -75.4833 33° Northeast 416 479 13,100  Level Philadelphia TRACON
Sun 08:05:50 PM 40.0167 -75.4000 37° Northeast 411 473 13,100 -50 Level Philadelphia TRACON
Sun 08:06:50 PM 40.1167 -75.3000 37° Northeast 416 479 13,000 -520 Descending Philadelphia TRACON
Sun 08:07:57 PM 40.2000 -75.2167 37° Northeast 341 392 12,000 -1,465 Descending Philadelphia TRACON
Sun 08:10:27 PM 40.3667 -75.0333 40° Northeast 305 351 7,700 -1,543 Descending New York TRACON
Sun 08:11:27 PM 40.4333 -74.9667 37° Northeast 297 342 6,600 -1,050 Descending New York TRACON
Sun 08:12:27 PM 40.4833 -74.8833 52° Northeast 292 336 5,600 -1,000 Descending New York TRACON
Sun 08:13:27 PM 40.5333 -74.8000 52° Northeast 290 334 4,600 -800 Descending New York TRACON
Sun 08:14:27 PM 40.6000 -74.7333 37° Northeast 283 326 4,000 -300 Descending New York TRACON
Sun 08:15:27 PM 40.6667 -74.6833 30° Northeast 287 330 4,000 -161 Level New York TRACON
Sun 08:21:18 PM 40.9845 -74.2968 30° Northeast 242 278 2,900 -179 Descending FlightAware ADS-B
Sun 08:21:35 PM 40.9955 -74.2786 51° Northeast 226 260 2,900  Level FlightAware ADS-B
Sun 08:22:15 PM 41.0176 -74.2384 54° Northeast 226 260 2,900  Level FlightAware ADS-B
Sun 08:22:19 PM 41.0189 -74.2343 67° East 192 221 2,900  Level FlightAware ADS-B
Sun 08:22:34 PM 41.0239 -74.2176 68° East 193 222 2,900 -554 Level FlightAware ADS-B
Sun 08:23:24 PM 41.0391 -74.1643 69° East 180 207 2,300 -789 Descending FlightAware ADS-B
Sun 08:23:50 PM 41.0386 -74.1380 91° East 179 206 1,900 -727 Descending FlightAware ADS-B
Sun 08:23:57 PM 41.0374 -74.1312 103° East 165 190 1,900  Level FlightAware ADS-B
Sun 08:24:14 PM 41.0324 -74.1155 113° Southeast 162 186 1,900  Level FlightAware ADS-B
Sun 08:24:32 PM 41.0247 -74.1008 125° Southeast 164 189 1,900  Level FlightAware ADS-B
Sun 08:24:51 PM 41.0165 -74.0852 125° Southeast 164 189 1,900  Level FlightAware ADS-B
Sun 08:25:14 PM 41.0046 -74.0690 134° Southeast 163 188 1,900  Level FlightAware ADS-B
Sun 08:25:23 PM 40.9986 -74.0657 157° South 156 180 1,900  Level FlightAware ADS-B
Sun 08:25:39 PM 40.9877 -74.0604 160° South 153 176 1,900  Level FlightAware ADS-B
Sun 08:25:57 PM 40.9757 -74.0543 159° South 154 177 1,900  Level FlightAware ADS-B
Sun 08:26:02 PM 40.9724 -74.0529 162° South 153 176 1,900  Level FlightAware ADS-B
Sun 08:26:06 PM 40.9696 -74.0522 169° South 153 176 1,900  Level FlightAware ADS-B
Sun 08:26:13 PM 40.9647 -74.0517 176° South 154 177 1,900  Level FlightAware ADS-B
Sun 08:26:19 PM 40.9606 -74.0516 179° South 155 178 1,900  Level FlightAware ADS-B
Sun 08:26:27 PM 40.9549 -74.0518 182° South 156 180 1,900 -522 Level FlightAware ADS-B
Sun 08:26:42 PM 40.9440 -74.0527 184° South 156 180 1,700 -800 Descending FlightAware ADS-B
Sun 08:26:57 PM 40.9333 -74.0535 183° South 150 173 1,500 -947 Descending FlightAware ADS-B
Sun 08:27:01 PM 40.9305 -74.0537 183° South 149 171 1,400 -947 Descending FlightAware ADS-B
Sun 08:27:16 PM 40.9201 -74.0542 182° South 147 169 1,200 -857 Descending FlightAware ADS-B
Sun 08:27:29 PM 40.9120 -74.0549 184° South 130 150 1,000 -720 Descending FlightAware ADS-B
Sun 08:27:41 PM 40.9054 -74.0555 184° South 121 139 900 -643 Descending FlightAware ADS-B
Sun 08:27:57 PM 40.8963 -74.0561 183° South 121 139 700 -581 Descending FlightAware ADS-B
Sun 08:28:12 PM 40.8879 -74.0567 183° South 123 142 600 -600 Descending FlightAware ADS-B
Sun 08:28:27 PM 40.8791 -74.0573 183° South 122 140 400 -889 Descending FlightAware ADS-B
Sun 08:28:39 PM 40.8722 -74.0579 184° South 124 143 200 -1,000 Descending FlightAware ADS-B
Sun 08:35:00 PM 40.8500 -74.0500 99° East  Level FlightAware Approximate
Sun 08:36:00 PM 40.8501 -74.0608 99° East  Level Estimated
Sun 08:37:00 PM 40.8501 -74.0608 99° East  Level Estimated
Sun 08:38:00 PM 40.8501 -74.0608 99° East  Level Estimated
Sun 08:39:00 PM 40.8501 -74.0608 99° East  Level Estimated
Sun 08:40:00 PM 40.8501 -74.0608 99° East  Level Estimated

Login

Don't have an account? Register now (free) for customized features, flight alerts, and more!